createdAt,value
2023-05-21T00:00:18.702Z,3.78
2023-05-21T00:00:38.967Z,3.94
2023-05-21T00:01:06.630Z,3.94
2023-05-21T00:01:37.425Z,3.94
2023-05-21T00:02:09.456Z,3.94
2023-05-21T00:02:37.028Z,3.94
2023-05-21T00:02:57.975Z,3.78
2023-05-21T00:03:29.512Z,3.38
2023-05-21T00:03:46.264Z,3.38
2023-05-21T00:04:17.591Z,3.38
2023-05-21T00:04:39.193Z,3.21
2023-05-21T00:05:07.104Z,3.05
2023-05-21T00:05:37.835Z,2.73
2023-05-21T00:06:09.402Z,2.73
2023-05-21T00:06:37.475Z,2.33
2023-05-21T00:06:57.503Z,2.09
2023-05-21T00:07:29.612Z,2.09
2023-05-21T00:07:46.370Z,2.09
2023-05-21T00:08:17.531Z,2.09
2023-05-21T00:08:39.000Z,2.09
2023-05-21T00:09:06.857Z,2.09
2023-05-21T00:09:37.550Z,2.09
2023-05-21T00:10:10.051Z,2.09
2023-05-21T00:10:25.981Z,2.09
2023-05-21T00:10:57.824Z,2.33
2023-05-21T00:11:29.447Z,2.09
2023-05-21T00:11:46.148Z,2.09
2023-05-21T00:12:17.788Z,2.09
2023-05-21T00:12:39.054Z,2.09
2023-05-21T00:13:05.962Z,2.09
2023-05-21T00:13:37.466Z,2.09
2023-05-21T00:14:09.425Z,2.09
2023-05-21T00:14:37.190Z,2.09
2023-05-21T00:14:57.550Z,2.09
2023-05-21T00:15:30.347Z,2.09
2023-05-21T00:15:46.148Z,2.09
2023-05-21T00:16:17.705Z,2.09
2023-05-21T00:16:39.194Z,1.93
2023-05-21T00:17:05.967Z,1.93
2023-05-21T00:17:37.549Z,1.45
2023-05-21T00:18:09.594Z,1.45
2023-05-21T00:18:26.035Z,1.12
2023-05-21T00:18:57.679Z,1.12
2023-05-21T00:19:29.300Z,1.12
2023-05-21T00:19:45.939Z,1.12
2023-05-21T00:20:17.985Z,1.12
2023-05-21T00:20:39.011Z,1.12
2023-05-21T00:21:05.941Z,1.12
2023-05-21T00:21:37.473Z,1.12
2023-05-21T00:22:09.425Z,1.45
2023-05-21T00:22:37.227Z,1.45
2023-05-21T00:22:57.540Z,1.61
2023-05-21T00:23:29.243Z,1.61
2023-05-21T00:23:46.311Z,1.12
2023-05-21T00:24:17.668Z,1.12
2023-05-21T00:24:38.939Z,1.12
2023-05-21T00:25:07.043Z,1.12
2023-05-21T00:25:37.617Z,1.61
2023-05-21T00:26:09.330Z,1.45
2023-05-21T00:26:37.101Z,1.93
2023-05-21T00:26:58.418Z,1.93
2023-05-21T00:27:29.431Z,1.93
2023-05-21T00:27:45.924Z,1.61
2023-05-21T00:28:17.422Z,1.61
2023-05-21T00:28:39.073Z,1.44
2023-05-21T00:29:05.912Z,1.44
2023-05-21T00:29:37.450Z,1.44
2023-05-21T00:30:10.303Z,1.44
2023-05-21T00:30:37.033Z,1.28
2023-05-21T00:30:58.321Z,1.12
2023-05-21T00:31:29.316Z,1.12
2023-05-21T00:31:46.091Z,.88
2023-05-21T00:32:17.540Z,1.12
2023-05-21T00:32:39.101Z,1.12
2023-05-21T00:33:05.950Z,1.12
2023-05-21T00:33:37.461Z,1.28
2023-05-21T00:34:09.733Z,1.28
2023-05-21T00:34:37.098Z,1.12
2023-05-21T00:34:57.516Z,1.12
2023-05-21T00:35:29.661Z,1.12
2023-05-21T00:35:45.979Z,1.12
2023-05-21T00:36:18.685Z,1.12
2023-05-21T00:36:39.775Z,1.12
2023-05-21T00:37:06.300Z,1.12
2023-05-21T00:37:37.703Z,1.12
2023-05-21T00:38:09.490Z,1.12
2023-05-21T00:38:37.128Z,1.12
2023-05-21T00:38:57.493Z,1.12
2023-05-21T00:39:29.302Z,1.12
2023-05-21T00:39:46.026Z,1.28
2023-05-21T00:40:17.961Z,1.44
2023-05-21T00:40:39.124Z,1.44
2023-05-21T00:41:06.159Z,1.28
2023-05-21T00:41:37.541Z,1.28
2023-05-21T00:42:09.435Z,1.28
2023-05-21T00:42:37.006Z,1.12
2023-05-21T00:42:57.488Z,1.12
2023-05-21T00:43:29.307Z,1.12
2023-05-21T00:43:46.079Z,1.12
2023-05-21T00:44:17.548Z,.88
2023-05-21T00:44:38.991Z,.88
2023-05-21T00:45:08.043Z,.32
2023-05-21T00:45:38.002Z,0
2023-05-21T00:46:09.595Z,0
2023-05-21T00:46:37.319Z,0
2023-05-21T00:46:57.547Z,0
2023-05-21T00:47:29.394Z,0
2023-05-21T00:47:46.108Z,0
2023-05-21T00:48:17.665Z,0
2023-05-21T00:48:38.990Z,0
2023-05-21T00:49:05.977Z,0
2023-05-21T00:49:37.519Z,0
2023-05-21T00:50:10.194Z,0
2023-05-21T00:50:37.349Z,0
2023-05-21T00:50:57.953Z,0
2023-05-21T00:51:29.354Z,0
2023-05-21T00:51:45.992Z,0
2023-05-21T00:52:17.545Z,0
2023-05-21T00:52:39.025Z,0
2023-05-21T00:53:06.276Z,0
2023-05-21T00:53:37.418Z,0
2023-05-21T00:54:09.478Z,0
2023-05-21T00:54:37.280Z,0
2023-05-21T00:54:57.718Z,0
2023-05-21T00:55:29.681Z,0
2023-05-21T00:55:45.997Z,0
2023-05-21T00:56:17.624Z,0
2023-05-21T00:56:39.028Z,0
2023-05-21T00:57:06.060Z,0
2023-05-21T00:57:37.712Z,0
2023-05-21T00:58:09.549Z,0
2023-05-21T00:58:37.098Z,0
2023-05-21T00:58:57.558Z,0
2023-05-21T00:59:29.332Z,0
2023-05-21T00:59:46.071Z,0
2023-05-21T01:00:18.669Z,0
2023-05-21T01:00:39.061Z,0
2023-05-21T01:01:07.055Z,0
2023-05-21T01:01:37.634Z,0
2023-05-21T01:02:09.458Z,0
2023-05-21T01:02:37.540Z,0
2023-05-21T01:02:57.442Z,0
2023-05-21T01:03:29.318Z,0
2023-05-21T01:03:46.064Z,0
2023-05-21T01:04:17.697Z,0
2023-05-21T01:04:38.911Z,0
2023-05-21T01:05:07.117Z,0
2023-05-21T01:05:37.829Z,0
2023-05-21T01:06:09.449Z,0
2023-05-21T01:06:37.196Z,.16
2023-05-21T01:06:57.526Z,.32
2023-05-21T01:07:29.376Z,.32
2023-05-21T01:07:45.992Z,.32
2023-05-21T01:08:17.930Z,.32
2023-05-21T01:08:39.056Z,.32
2023-05-21T01:09:06.115Z,.32
2023-05-21T01:09:37.531Z,.32
2023-05-21T01:10:10.096Z,.32
2023-05-21T01:10:37.144Z,.32
2023-05-21T01:10:57.953Z,.32
2023-05-21T01:11:29.347Z,.48
2023-05-21T01:11:46.080Z,.64
2023-05-21T01:12:17.616Z,.88
2023-05-21T01:12:39.047Z,1.28
2023-05-21T01:13:06.106Z,1.28
2023-05-21T01:13:37.439Z,1.44
2023-05-21T01:14:09.420Z,1.44
2023-05-21T01:14:37.136Z,1.44
2023-05-21T01:14:57.499Z,1.44
2023-05-21T01:15:30.373Z,1.44
2023-05-21T01:15:46.423Z,1.44
2023-05-21T01:16:17.670Z,1.44
2023-05-21T01:16:39.075Z,1.44
2023-05-21T01:17:06.151Z,1.44
2023-05-21T01:17:37.613Z,1.28
2023-05-21T01:18:09.359Z,1.28
2023-05-21T01:18:37.437Z,1.44
2023-05-21T01:18:57.589Z,1.44
2023-05-21T01:19:29.423Z,1.44
2023-05-21T01:19:46.068Z,1.44
2023-05-21T01:20:17.992Z,1.44
2023-05-21T01:20:39.078Z,1.44
2023-05-21T01:21:06.323Z,1.44
2023-05-21T01:21:37.501Z,1.44
2023-05-21T01:22:09.710Z,1.61
2023-05-21T01:22:37.202Z,1.77
2023-05-21T01:22:57.484Z,1.93
2023-05-21T01:23:29.347Z,1.93
2023-05-21T01:23:45.936Z,1.93
2023-05-21T01:24:17.525Z,1.93
2023-05-21T01:24:38.910Z,1.77
2023-05-21T01:25:07.037Z,2.09
2023-05-21T01:25:37.957Z,2.49
2023-05-21T01:26:09.787Z,2.49
2023-05-21T01:26:37.166Z,2.73
2023-05-21T01:26:57.527Z,2.33
2023-05-21T01:27:29.517Z,2.73
2023-05-21T01:27:47.214Z,2.73
2023-05-21T01:28:17.477Z,2.73
2023-05-21T01:28:39.024Z,2.33
2023-05-21T01:29:06.274Z,2.33
2023-05-21T01:29:37.544Z,2.09
2023-05-21T01:30:10.381Z,1.77
2023-05-21T01:30:37.241Z,1.77
2023-05-21T01:30:57.956Z,1.61
2023-05-21T01:31:29.388Z,1.44
2023-05-21T01:31:45.909Z,1.44
2023-05-21T01:32:17.500Z,1.44
2023-05-21T01:32:39.072Z,1.44
2023-05-21T01:33:06.639Z,1.44
2023-05-21T01:33:37.579Z,1.61
2023-05-21T01:34:09.553Z,1.61
2023-05-21T01:34:37.159Z,1.61
2023-05-21T01:34:57.665Z,1.77
2023-05-21T01:35:29.746Z,1.77
2023-05-21T01:35:45.921Z,1.77
2023-05-21T01:36:17.579Z,1.61
2023-05-21T01:36:38.916Z,1.61
2023-05-21T01:37:06.152Z,1.61
2023-05-21T01:37:37.631Z,1.77
2023-05-21T01:38:09.483Z,1.77
2023-05-21T01:38:37.334Z,1.77
2023-05-21T01:38:57.635Z,1.77
2023-05-21T01:39:29.676Z,1.61
2023-05-21T01:39:46.040Z,1.61
2023-05-21T01:40:17.945Z,1.61
2023-05-21T01:40:39.101Z,1.93
2023-05-21T01:41:06.065Z,1.93
2023-05-21T01:41:37.545Z,1.93
2023-05-21T01:42:09.410Z,1.77
2023-05-21T01:42:37.135Z,1.61
2023-05-21T01:42:57.564Z,1.44
2023-05-21T01:43:29.405Z,1.44
2023-05-21T01:43:45.979Z,1.28
2023-05-21T01:44:17.446Z,1.12
2023-05-21T01:44:38.990Z,1.12
2023-05-21T01:45:07.773Z,1.12
2023-05-21T01:45:37.600Z,1.12
2023-05-21T01:46:09.641Z,1.28
2023-05-21T01:46:25.953Z,1.28
2023-05-21T01:46:57.872Z,1.28
2023-05-21T01:47:29.328Z,1.44
2023-05-21T01:47:46.048Z,1.28
2023-05-21T01:48:17.597Z,1.28
2023-05-21T01:48:38.944Z,1.12
2023-05-21T01:49:06.061Z,1.12
2023-05-21T01:49:37.541Z,1.12
2023-05-21T01:50:09.830Z,1.28
2023-05-21T01:50:37.180Z,1.61
2023-05-21T01:50:58.006Z,2.33
2023-05-21T01:51:29.359Z,3.05
2023-05-21T01:51:45.881Z,3.61
2023-05-21T01:52:17.450Z,3.61
2023-05-21T01:52:38.999Z,3.61
2023-05-21T01:53:06.289Z,4.18
2023-05-21T01:53:37.632Z,4.18
2023-05-21T01:54:09.584Z,4.18
2023-05-21T01:54:37.650Z,4.18
2023-05-21T01:54:57.750Z,3.61
2023-05-21T01:55:29.806Z,3.05
2023-05-21T01:55:46.115Z,2.89
2023-05-21T01:56:17.575Z,3.05
2023-05-21T01:56:39.386Z,3.05
2023-05-21T01:57:06.397Z,3.05
2023-05-21T01:57:38.041Z,3.05
2023-05-21T01:58:09.390Z,3.05
2023-05-21T01:58:37.464Z,2.89
2023-05-21T01:58:57.655Z,2.89
2023-05-21T01:59:29.503Z,2.49
2023-05-21T01:59:45.975Z,2.09
2023-05-21T02:00:18.495Z,1.93
2023-05-21T02:00:39.752Z,1.61
2023-05-21T02:01:06.688Z,1.28
2023-05-21T02:01:37.534Z,1.12
2023-05-21T02:02:09.527Z,.88
2023-05-21T02:02:37.332Z,.88
2023-05-21T02:02:57.626Z,.64
2023-05-21T02:03:29.584Z,.48
2023-05-21T02:03:46.110Z,.48
2023-05-21T02:04:17.541Z,.48
2023-05-21T02:04:39.148Z,.88
2023-05-21T02:05:07.148Z,.48
2023-05-21T02:05:37.910Z,.32
2023-05-21T02:06:09.397Z,.32
2023-05-21T02:06:37.234Z,.16
2023-05-21T02:06:57.766Z,0
2023-05-21T02:07:29.336Z,0
2023-05-21T02:07:46.276Z,0
2023-05-21T02:08:17.507Z,0
2023-05-21T02:08:38.978Z,0
2023-05-21T02:09:06.353Z,0
2023-05-21T02:09:37.525Z,0
2023-05-21T02:10:09.994Z,0
2023-05-21T02:10:37.254Z,0
2023-05-21T02:10:57.997Z,0
2023-05-21T02:11:29.395Z,0
2023-05-21T02:11:46.360Z,0
2023-05-21T02:12:17.509Z,.16
2023-05-21T02:12:39.149Z,.32
2023-05-21T02:13:06.327Z,.32
2023-05-21T02:13:37.627Z,.16
2023-05-21T02:14:09.538Z,.32
2023-05-21T02:14:25.929Z,.32
2023-05-21T02:14:57.586Z,.48
2023-05-21T02:15:30.392Z,.64
2023-05-21T02:15:46.516Z,.88
2023-05-21T02:16:17.686Z,1.12
2023-05-21T02:16:39.038Z,1.12
2023-05-21T02:17:06.284Z,1.12
2023-05-21T02:17:37.879Z,1.12
2023-05-21T02:18:09.736Z,1.12
2023-05-21T02:18:37.151Z,1.12
2023-05-21T02:18:58.476Z,1.12
2023-05-21T02:19:29.574Z,.88
2023-05-21T02:19:45.924Z,.88
2023-05-21T02:20:18.144Z,1.12
2023-05-21T02:20:38.934Z,1.12
2023-05-21T02:21:06.149Z,.88
2023-05-21T02:21:37.501Z,1.12
2023-05-21T02:22:09.402Z,1.12
2023-05-21T02:22:37.279Z,1.12
2023-05-21T02:22:57.527Z,1.12
2023-05-21T02:23:29.307Z,1.12
2023-05-21T02:23:45.922Z,1.12
2023-05-21T02:24:17.593Z,1.28
2023-05-21T02:24:38.964Z,1.12
2023-05-21T02:25:07.132Z,1.12
2023-05-21T02:25:37.917Z,1.12
2023-05-21T02:26:09.377Z,1.12
2023-05-21T02:26:37.495Z,1.12
2023-05-21T02:26:57.574Z,1.12
2023-05-21T02:27:29.360Z,1.12
2023-05-21T02:27:45.891Z,1.28
2023-05-21T02:28:17.538Z,1.28
2023-05-21T02:28:39.658Z,1.28
2023-05-21T02:29:06.221Z,1.12
2023-05-21T02:29:37.873Z,1.12
2023-05-21T02:30:10.406Z,1.12
2023-05-21T02:30:37.297Z,1.12
2023-05-21T02:30:58.101Z,1.12
2023-05-21T02:31:29.391Z,1.12
2023-05-21T02:31:45.893Z,1.12
2023-05-21T02:32:17.538Z,1.12
2023-05-21T02:32:39.179Z,1.12
2023-05-21T02:33:06.174Z,.88
2023-05-21T02:33:37.624Z,.48
2023-05-21T02:34:09.583Z,.32
2023-05-21T02:34:37.235Z,.32
2023-05-21T02:34:57.647Z,.16
2023-05-21T02:35:29.819Z,0
2023-05-21T02:35:45.924Z,0
2023-05-21T02:36:17.637Z,0
2023-05-21T02:36:38.999Z,0
2023-05-21T02:37:06.253Z,0
2023-05-21T02:37:37.524Z,0
2023-05-21T02:38:09.594Z,0
2023-05-21T02:38:37.477Z,0
2023-05-21T02:38:58.264Z,0
2023-05-21T02:39:29.300Z,0
2023-05-21T02:39:45.914Z,0
2023-05-21T02:40:18.010Z,0
2023-05-21T02:40:39.071Z,0
2023-05-21T02:41:06.230Z,0
2023-05-21T02:41:37.458Z,0
2023-05-21T02:42:09.387Z,0
2023-05-21T02:42:37.305Z,0
2023-05-21T02:42:57.657Z,0
2023-05-21T02:43:29.342Z,0
2023-05-21T02:43:46.186Z,0
2023-05-21T02:44:17.609Z,0
2023-05-21T02:44:39.076Z,0
2023-05-21T02:45:07.628Z,0
2023-05-21T02:45:38.040Z,0
2023-05-21T02:46:09.569Z,0
2023-05-21T02:46:37.388Z,0
2023-05-21T02:46:57.413Z,0
2023-05-21T02:47:29.377Z,0
2023-05-21T02:47:46.022Z,0
2023-05-21T02:48:17.547Z,0
2023-05-21T02:48:39.070Z,0
2023-05-21T02:49:06.105Z,0
2023-05-21T02:49:37.554Z,0
2023-05-21T02:50:09.879Z,0
2023-05-21T02:50:37.698Z,0
2023-05-21T02:50:58.191Z,0
2023-05-21T02:51:29.375Z,0
2023-05-21T02:51:45.954Z,0
2023-05-21T02:52:17.650Z,0
2023-05-21T02:52:38.986Z,0
2023-05-21T02:53:06.287Z,0
2023-05-21T02:53:37.629Z,0
2023-05-21T02:54:09.429Z,0
2023-05-21T02:54:37.195Z,0
2023-05-21T02:54:57.629Z,0
2023-05-21T02:55:29.793Z,0
2023-05-21T02:55:46.029Z,0
2023-05-21T02:56:17.576Z,0
2023-05-21T02:56:39.268Z,0
2023-05-21T02:57:06.747Z,0
2023-05-21T02:57:37.640Z,0
2023-05-21T02:58:09.444Z,0
2023-05-21T02:58:37.275Z,0
2023-05-21T02:58:57.648Z,0
2023-05-21T02:59:29.422Z,0
2023-05-21T02:59:46.292Z,0
2023-05-21T03:00:18.451Z,0
2023-05-21T03:00:39.219Z,0
2023-05-21T03:01:06.825Z,0
2023-05-21T03:01:37.468Z,0
2023-05-21T03:02:09.730Z,0
2023-05-21T03:02:37.448Z,0
2023-05-21T03:02:57.683Z,0
2023-05-21T03:03:29.508Z,0
2023-05-21T03:03:46.237Z,0
2023-05-21T03:04:17.507Z,0
2023-05-21T03:04:39.054Z,0
2023-05-21T03:05:07.205Z,0
2023-05-21T03:05:38.159Z,0
2023-05-21T03:06:09.404Z,.32
2023-05-21T03:06:37.462Z,.88
2023-05-21T03:06:57.425Z,1.28
2023-05-21T03:07:29.325Z,1.44
2023-05-21T03:07:45.929Z,1.44
2023-05-21T03:08:17.524Z,1.61
2023-05-21T03:08:39.078Z,1.77
2023-05-21T03:09:06.267Z,1.77
2023-05-21T03:09:37.615Z,1.77
2023-05-21T03:10:10.212Z,1.77
2023-05-21T03:10:37.345Z,1.77
2023-05-21T03:10:57.829Z,1.77
2023-05-21T03:11:29.542Z,1.77
2023-05-21T03:11:46.044Z,1.61
2023-05-21T03:12:17.572Z,1.44
2023-05-21T03:12:39.106Z,1.44
2023-05-21T03:13:08.974Z,1.44
2023-05-21T03:13:37.521Z,1.44
2023-05-21T03:14:09.691Z,1.44
2023-05-21T03:14:37.193Z,1.44
2023-05-21T03:14:57.685Z,1.44
2023-05-21T03:15:30.354Z,1.44
2023-05-21T03:15:46.238Z,1.44
2023-05-21T03:16:18.011Z,1.44
2023-05-21T03:16:39.152Z,1.28
2023-05-21T03:17:06.605Z,1.12
2023-05-21T03:17:37.664Z,1.12
2023-05-21T03:18:09.446Z,1.28
2023-05-21T03:18:37.446Z,1.44
2023-05-21T03:18:57.867Z,1.44
2023-05-21T03:19:29.660Z,1.44
2023-05-21T03:19:46.228Z,1.44
2023-05-21T03:20:18.574Z,1.44
2023-05-21T03:20:39.301Z,1.44
2023-05-21T03:21:07.164Z,1.44
2023-05-21T03:21:37.764Z,1.44
2023-05-21T03:22:09.617Z,1.44
2023-05-21T03:22:37.396Z,1.44
2023-05-21T03:22:57.865Z,1.44
2023-05-21T03:23:29.364Z,1.44
2023-05-21T03:23:46.371Z,1.44
2023-05-21T03:24:17.804Z,1.44
2023-05-21T03:24:39.341Z,1.28
2023-05-21T03:25:07.395Z,1.28
2023-05-21T03:25:37.882Z,1.44
2023-05-21T03:26:09.613Z,1.44
2023-05-21T03:26:37.461Z,1.28
2023-05-21T03:26:57.633Z,1.12
2023-05-21T03:27:29.555Z,1.12
2023-05-21T03:27:46.504Z,1.12
2023-05-21T03:28:17.798Z,.88
2023-05-21T03:28:39.333Z,.88
2023-05-21T03:29:07.680Z,.88
2023-05-21T03:29:37.892Z,.88
2023-05-21T03:30:10.790Z,.88
2023-05-21T03:30:37.621Z,.88
2023-05-21T03:30:58.602Z,.88
2023-05-21T03:31:29.741Z,1.12
2023-05-21T03:31:46.127Z,1.12
2023-05-21T03:32:17.868Z,1.12
2023-05-21T03:32:39.452Z,1.12
2023-05-21T03:33:06.429Z,1.12
2023-05-21T03:33:37.917Z,1.12
2023-05-21T03:34:09.621Z,1.12
2023-05-21T03:34:37.852Z,1.12
2023-05-21T03:34:57.729Z,1.12
2023-05-21T03:35:30.133Z,1.12
2023-05-21T03:35:46.284Z,1.12
2023-05-21T03:36:17.919Z,1.12
2023-05-21T03:36:39.349Z,1.12
2023-05-21T03:37:06.371Z,1.12
2023-05-21T03:37:37.935Z,1.12
2023-05-21T03:38:09.610Z,.88
2023-05-21T03:38:37.667Z,.88
2023-05-21T03:38:57.697Z,.48
2023-05-21T03:39:29.563Z,.32
2023-05-21T03:39:46.394Z,.16
2023-05-21T03:40:18.209Z,0
2023-05-21T03:40:39.119Z,0
2023-05-21T03:41:06.346Z,0
2023-05-21T03:41:37.922Z,0
2023-05-21T03:42:09.596Z,0
2023-05-21T03:42:37.499Z,0
2023-05-21T03:42:57.867Z,0
2023-05-21T03:43:30.432Z,0
2023-05-21T03:43:46.165Z,0
2023-05-21T03:44:17.774Z,0
2023-05-21T03:44:39.175Z,0
2023-05-21T03:45:07.856Z,0
2023-05-21T03:45:38.196Z,.16
2023-05-21T03:46:09.674Z,.16
2023-05-21T03:46:37.554Z,.16
2023-05-21T03:46:57.849Z,.16
2023-05-21T03:47:29.633Z,.16
2023-05-21T03:47:46.238Z,.16
2023-05-21T03:48:17.961Z,.16
2023-05-21T03:48:39.391Z,.32
2023-05-21T03:49:06.499Z,.32
2023-05-21T03:49:38.016Z,.32
2023-05-21T03:50:10.331Z,.32
2023-05-21T03:50:37.592Z,.32
2023-05-21T03:50:58.507Z,.16
2023-05-21T03:51:29.583Z,.16
2023-05-21T03:51:46.817Z,0
2023-05-21T03:52:17.835Z,0
2023-05-21T03:52:39.397Z,0
2023-05-21T03:53:06.315Z,0
2023-05-21T03:53:37.915Z,0
2023-05-21T03:54:09.669Z,0
2023-05-21T03:54:37.415Z,0
2023-05-21T03:54:57.902Z,0
2023-05-21T03:55:30.045Z,0
2023-05-21T03:55:46.127Z,0
2023-05-21T03:56:18.131Z,0
2023-05-21T03:56:39.442Z,0
2023-05-21T03:57:06.414Z,0
2023-05-21T03:57:38.196Z,0
2023-05-21T03:58:09.675Z,0
2023-05-21T03:58:37.912Z,0
2023-05-21T03:58:57.848Z,0
2023-05-21T03:59:29.648Z,0
2023-05-21T03:59:46.137Z,0
2023-05-21T04:00:18.782Z,0
2023-05-21T04:00:39.684Z,0
2023-05-21T04:01:07.145Z,0
2023-05-21T04:01:38.235Z,0
2023-05-21T04:02:09.928Z,0
2023-05-21T04:02:37.882Z,0
2023-05-21T04:02:57.871Z,0
2023-05-21T04:03:29.837Z,0
2023-05-21T04:03:46.283Z,0
2023-05-21T04:04:17.880Z,0
2023-05-21T04:04:39.670Z,0
2023-05-21T04:05:07.194Z,0
2023-05-21T04:05:38.090Z,0
2023-05-21T04:06:09.697Z,0
2023-05-21T04:06:37.455Z,0
2023-05-21T04:06:57.844Z,0
2023-05-21T04:07:29.672Z,0
2023-05-21T04:07:46.367Z,0
2023-05-21T04:08:17.888Z,0
2023-05-21T04:08:39.204Z,0
2023-05-21T04:09:06.386Z,0
2023-05-21T04:09:37.806Z,0
2023-05-21T04:10:10.093Z,0
2023-05-21T04:10:37.465Z,0
2023-05-21T04:10:58.329Z,.16
2023-05-21T04:11:29.818Z,.72
2023-05-21T04:11:46.268Z,1.12
2023-05-21T04:12:17.751Z,1.28
2023-05-21T04:12:39.264Z,1.61
2023-05-21T04:13:06.380Z,1.61
2023-05-21T04:13:38.039Z,1.77
2023-05-21T04:14:09.689Z,1.77
2023-05-21T04:14:37.449Z,1.77
2023-05-21T04:14:57.801Z,1.77
2023-05-21T04:15:30.664Z,1.93
2023-05-21T04:15:46.389Z,2.09
2023-05-21T04:16:17.927Z,2.09
2023-05-21T04:16:39.409Z,2.49
2023-05-21T04:17:06.382Z,2.89
2023-05-21T04:17:38.073Z,2.89
2023-05-21T04:18:09.876Z,3.05
2023-05-21T04:18:37.535Z,3.38
2023-05-21T04:18:57.863Z,3.54
2023-05-21T04:19:29.843Z,3.54
2023-05-21T04:19:46.663Z,3.54
2023-05-21T04:20:18.138Z,3.54
2023-05-21T04:20:39.309Z,3.54
2023-05-21T04:21:06.458Z,3.78
2023-05-21T04:21:37.908Z,4.34
2023-05-21T04:22:09.614Z,4.66
2023-05-21T04:22:26.213Z,4.66
2023-05-21T04:22:58.118Z,4.82
2023-05-21T04:23:29.766Z,4.82
2023-05-21T04:23:46.106Z,4.82
2023-05-21T04:24:17.777Z,4.82
2023-05-21T04:24:39.317Z,4.82
2023-05-21T04:25:07.309Z,4.98
2023-05-21T04:25:38.275Z,4.98
2023-05-21T04:26:09.708Z,4.98
2023-05-21T04:26:26.159Z,4.98
2023-05-21T04:26:57.812Z,4.82
2023-05-21T04:27:29.639Z,4.50
2023-05-21T04:27:46.300Z,4.18
2023-05-21T04:28:17.896Z,3.78
2023-05-21T04:28:39.229Z,3.22
2023-05-21T04:29:06.406Z,2.89
2023-05-21T04:29:39.387Z,2.89
2023-05-21T04:30:10.796Z,2.49
2023-05-21T04:30:26.356Z,2.09
2023-05-21T04:30:58.254Z,1.77
2023-05-21T04:31:29.663Z,1.28
2023-05-21T04:31:46.551Z,1.28
2023-05-21T04:32:17.783Z,1.28
2023-05-21T04:32:39.255Z,1.28
2023-05-21T04:33:06.662Z,1.61
2023-05-21T04:33:37.854Z,1.61
2023-05-21T04:34:09.550Z,1.61
2023-05-21T04:34:26.258Z,1.28
2023-05-21T04:34:57.774Z,1.12
2023-05-21T04:35:30.325Z,1.12
2023-05-21T04:35:46.172Z,1.12
2023-05-21T04:36:17.817Z,1.12
2023-05-21T04:36:39.346Z,1.45
2023-05-21T04:37:06.541Z,1.93
2023-05-21T04:37:37.863Z,2.09
2023-05-21T04:38:09.565Z,2.09
2023-05-21T04:38:26.322Z,2.09
2023-05-21T04:38:57.974Z,2.82
2023-05-21T04:39:29.600Z,3.54
2023-05-21T04:39:46.071Z,3.54
2023-05-21T04:40:18.343Z,4.10
2023-05-21T04:40:39.339Z,4.10
2023-05-21T04:41:06.499Z,5.23
2023-05-21T04:41:37.918Z,5.39
2023-05-21T04:42:09.603Z,5.39
2023-05-21T04:42:26.241Z,5.39
2023-05-21T04:42:58.313Z,5.79
2023-05-21T04:43:29.641Z,5.79
2023-05-21T04:43:46.471Z,5.95
2023-05-21T04:44:17.731Z,5.95
2023-05-21T04:44:39.304Z,5.95
2023-05-21T04:45:07.813Z,5.79
2023-05-21T04:45:37.979Z,5.79
2023-05-21T04:46:09.710Z,5.63
2023-05-21T04:46:26.392Z,5.23
2023-05-21T04:46:57.835Z,5.23
2023-05-21T04:47:29.843Z,4.82
2023-05-21T04:47:46.272Z,4.82
2023-05-21T04:48:17.790Z,4.82
2023-05-21T04:48:39.217Z,4.82
2023-05-21T04:49:06.385Z,4.82
2023-05-21T04:49:37.764Z,4.82
2023-05-21T04:50:10.181Z,4.66
2023-05-21T04:50:26.085Z,4.66
2023-05-21T04:50:58.287Z,4.66
2023-05-21T04:51:29.613Z,4.50
2023-05-21T04:51:46.111Z,4.50
2023-05-21T04:52:17.810Z,4.66
2023-05-21T04:52:39.264Z,4.66
2023-05-21T04:53:06.460Z,4.66
2023-05-21T04:53:37.749Z,4.66
2023-05-21T04:54:09.991Z,4.66
2023-05-21T04:54:37.564Z,4.66
2023-05-21T04:54:57.696Z,4.66
2023-05-21T04:55:30.135Z,4.82
2023-05-21T04:55:46.211Z,4.82
2023-05-21T04:56:17.972Z,5.23
2023-05-21T04:56:39.307Z,5.23
2023-05-21T04:57:06.463Z,4.82
2023-05-21T04:57:37.786Z,4.82
2023-05-21T04:58:09.631Z,4.66
2023-05-21T04:58:26.571Z,4.66
2023-05-21T04:58:57.763Z,4.82
2023-05-21T04:59:29.807Z,4.82
2023-05-21T04:59:46.113Z,4.82
2023-05-21T05:00:18.925Z,4.82
2023-05-21T05:00:39.317Z,4.50
2023-05-21T05:01:07.618Z,4.66
2023-05-21T05:01:37.771Z,4.34
2023-05-21T05:02:09.574Z,4.66
2023-05-21T05:02:26.206Z,4.66
2023-05-21T05:02:57.832Z,4.66
2023-05-21T05:03:29.829Z,4.34
2023-05-21T05:03:46.146Z,4.34
2023-05-21T05:04:17.840Z,4.34
2023-05-21T05:04:39.294Z,4.18
2023-05-21T05:05:07.946Z,4.18
2023-05-21T05:05:38.413Z,4.18
2023-05-21T05:06:09.983Z,4.02
2023-05-21T05:06:26.225Z,4.02
2023-05-21T05:06:57.582Z,4.02
2023-05-21T05:07:29.617Z,4.18
2023-05-21T05:07:46.379Z,4.18
2023-05-21T05:08:17.883Z,4.18
2023-05-21T05:08:39.236Z,4.34
2023-05-21T05:09:06.378Z,4.34
2023-05-21T05:09:37.846Z,4.34
2023-05-21T05:10:10.345Z,4.34
2023-05-21T05:10:26.310Z,4.18
2023-05-21T05:10:57.998Z,4.18
2023-05-21T05:11:29.575Z,3.61
2023-05-21T05:11:46.081Z,3.61
2023-05-21T05:12:17.723Z,3.94
2023-05-21T05:12:39.406Z,4.66
2023-05-21T05:13:06.471Z,4.66
2023-05-21T05:13:37.820Z,4.66
2023-05-21T05:14:09.640Z,4.66
2023-05-21T05:14:26.229Z,4.66
2023-05-21T05:14:58.209Z,4.66
2023-05-21T05:15:30.555Z,4.66
2023-05-21T05:15:48.115Z,4.66
2023-05-21T05:16:18.008Z,4.66
2023-05-21T05:16:39.378Z,4.34
2023-05-21T05:17:06.391Z,4.34
2023-05-21T05:17:37.793Z,3.61
2023-05-21T05:18:09.678Z,3.61
2023-05-21T05:18:26.328Z,3.61
2023-05-21T05:18:57.887Z,3.21
2023-05-21T05:19:29.733Z,3.21
2023-05-21T05:19:46.293Z,3.21
2023-05-21T05:20:18.553Z,3.05
2023-05-21T05:20:39.574Z,2.01
2023-05-21T05:21:06.584Z,1.12
2023-05-21T05:21:38.122Z,1.12
2023-05-21T05:22:11.766Z,.88
2023-05-21T05:22:37.665Z,.64
2023-05-21T05:22:58.601Z,.48
2023-05-21T05:23:29.913Z,.48
2023-05-21T05:23:46.449Z,.48
2023-05-21T05:24:18.319Z,.32
2023-05-21T05:24:39.853Z,.32
2023-05-21T05:25:07.465Z,.16
2023-05-21T05:25:38.316Z,.16
2023-05-21T05:26:09.860Z,.16
2023-05-21T05:26:26.575Z,.32
2023-05-21T05:26:57.853Z,.32
2023-05-21T05:27:29.837Z,.32
2023-05-21T05:27:46.317Z,.32
2023-05-21T05:28:17.938Z,.32
2023-05-21T05:28:39.579Z,.32
2023-05-21T05:29:06.640Z,.32
2023-05-21T05:29:37.984Z,.32
2023-05-21T05:30:11.424Z,.32
2023-05-21T05:30:27.795Z,.48
2023-05-21T05:30:58.475Z,.64
2023-05-21T05:31:29.887Z,.64
2023-05-21T05:31:46.293Z,.88
2023-05-21T05:32:18.169Z,.88
2023-05-21T05:32:39.655Z,1.12
2023-05-21T05:33:06.666Z,1.12
2023-05-21T05:33:38.082Z,1.12
2023-05-21T05:34:09.885Z,1.12
2023-05-21T05:34:26.288Z,1.12
2023-05-21T05:34:57.855Z,1.28
2023-05-21T05:35:30.376Z,1.28
2023-05-21T05:35:46.687Z,1.28
2023-05-21T05:36:18.184Z,1.28
2023-05-21T05:36:39.750Z,1.61
2023-05-21T05:37:06.640Z,1.61
2023-05-21T05:37:37.951Z,1.61
2023-05-21T05:38:09.999Z,1.77
2023-05-21T05:38:27.369Z,1.77
2023-05-21T05:38:57.863Z,1.93
2023-05-21T05:39:30.144Z,2.49
2023-05-21T05:39:46.577Z,2.49
2023-05-21T05:40:18.520Z,3.05
2023-05-21T05:40:39.633Z,3.22
2023-05-21T05:41:06.908Z,3.54
2023-05-21T05:41:38.191Z,3.78
2023-05-21T05:42:09.985Z,3.78
2023-05-21T05:42:26.640Z,3.78
2023-05-21T05:42:57.856Z,3.78
2023-05-21T05:43:30.461Z,3.78
2023-05-21T05:43:46.352Z,3.78
2023-05-21T05:44:18.330Z,4.18
2023-05-21T05:44:39.816Z,4.18
2023-05-21T05:45:27.139Z,4.18
2023-05-21T05:45:38.995Z,4.18
2023-05-21T05:46:10.194Z,4.34
2023-05-21T05:46:38.242Z,4.50
2023-05-21T05:46:58.024Z,4.66
2023-05-21T05:47:30.684Z,4.50
2023-05-21T05:47:46.434Z,4.50
2023-05-21T05:48:18.238Z,4.34
2023-05-21T05:48:39.625Z,3.78
2023-05-21T05:49:08.272Z,3.38
2023-05-21T05:49:38.238Z,3.21
2023-05-21T05:50:10.274Z,3.21
2023-05-21T05:50:26.610Z,3.21
2023-05-21T05:50:58.578Z,3.21
2023-05-21T05:51:30.010Z,3.21
2023-05-21T05:51:46.471Z,3.61
2023-05-21T05:52:18.391Z,4.50
2023-05-21T05:52:39.738Z,4.50
2023-05-21T05:53:06.773Z,3.61
2023-05-21T05:53:38.236Z,3.38
2023-05-21T05:54:10.082Z,4.26
2023-05-21T05:54:27.213Z,4.98
2023-05-21T05:54:58.646Z,4.82
2023-05-21T05:55:30.480Z,4.10
2023-05-21T05:55:46.489Z,4.10
2023-05-21T05:56:18.162Z,4.82
2023-05-21T05:56:40.135Z,4.98
2023-05-21T05:57:07.082Z,4.98
2023-05-21T05:57:38.563Z,5.39
2023-05-21T05:58:09.888Z,5.79
2023-05-21T05:58:26.566Z,5.95
2023-05-21T05:58:58.173Z,5.79
2023-05-21T05:59:30.097Z,5.63
2023-05-21T05:59:46.549Z,5.63
2023-05-21T06:00:19.186Z,5.79
2023-05-21T06:00:40.170Z,5.63
2023-05-21T06:01:07.532Z,5.79
2023-05-21T06:01:37.964Z,5.79
2023-05-21T06:02:09.830Z,5.79
2023-05-21T06:02:38.021Z,5.79
2023-05-21T06:02:58.165Z,5.63
2023-05-21T06:03:30.218Z,5.23
2023-05-21T06:03:46.767Z,5.23
2023-05-21T06:04:18.073Z,5.23
2023-05-21T06:04:40.099Z,5.23